createdAt,value
2016-09-07T00:00:52.786Z,14.55
2016-09-07T00:01:53.090Z,14.55
2016-09-07T00:02:52.825Z,14.52
2016-09-07T00:03:52.845Z,14.62
2016-09-07T00:04:52.857Z,14.58
2016-09-07T00:05:52.885Z,14.58
2016-09-07T00:06:53.210Z,14.63
2016-09-07T00:07:53.370Z,14.61
2016-09-07T00:08:52.935Z,14.52
2016-09-07T00:09:52.969Z,14.59
2016-09-07T00:10:53.294Z,14.67
2016-09-07T00:11:53.007Z,14.67
2016-09-07T00:12:53.074Z,14.81
2016-09-07T00:13:53.367Z,14.78
2016-09-07T00:14:53.384Z,14.74
2016-09-07T00:15:53.415Z,14.77
2016-09-07T00:16:53.119Z,14.73
2016-09-07T00:17:53.135Z,14.7
2016-09-07T00:18:53.471Z,14.66
2016-09-07T00:19:53.382Z,14.55
2016-09-07T00:20:53.519Z,14.56
2016-09-07T00:21:53.226Z,14.52
2016-09-07T00:22:53.550Z,14.53
2016-09-07T00:23:53.276Z,14.59
2016-09-07T00:24:53.595Z,14.44
2016-09-07T00:25:53.617Z,14.52
2016-09-07T00:26:53.655Z,14.55
2016-09-07T00:27:53.674Z,14.45
2016-09-07T00:28:53.377Z,14.49
2016-09-07T00:29:53.402Z,14.43
2016-09-07T00:30:53.726Z,14.41
2016-09-07T00:31:53.434Z,14.37
2016-09-07T00:32:53.156Z,14.38
2016-09-07T00:33:53.482Z,14.33
2016-09-07T00:34:53.814Z,14.34
2016-09-07T00:35:53.526Z,14.23
2016-09-07T00:36:53.844Z,14.25
2016-09-07T00:37:53.876Z,14.31
2016-09-07T00:38:53.904Z,14.16
2016-09-07T00:39:53.926Z,14.25
2016-09-07T00:40:53.626Z,14.16
2016-09-07T00:41:53.953Z,14.12
2016-09-07T00:42:53.983Z,14.15
2016-09-07T00:43:54.007Z,14.08
2016-09-07T00:44:53.404Z,14.11
2016-09-07T00:45:53.430Z,14.05
2016-09-07T00:46:54.084Z,14.04
2016-09-07T00:47:53.470Z,14.05
2016-09-07T00:48:54.116Z,14.05
2016-09-07T00:49:54.143Z,14.11
2016-09-07T00:50:54.156Z,14.12
2016-09-07T00:51:53.855Z,14.08
2016-09-07T00:52:53.905Z,14.18
2016-09-07T00:53:53.908Z,14.18
2016-09-07T00:54:54.307Z,14.15
2016-09-07T00:55:54.376Z,14.15
2016-09-07T00:56:53.976Z,14.12
2016-09-07T00:57:54.006Z,14.13
2016-09-07T00:58:54.323Z,14.07
2016-09-07T00:59:53.744Z,14.05
2016-09-07T01:00:54.055Z,14.04
2016-09-07T01:01:54.084Z,13.98
2016-09-07T01:02:54.111Z,14
2016-09-07T01:03:54.553Z,13.95
2016-09-07T01:04:54.158Z,13.93
2016-09-07T01:05:54.475Z,13.94
2016-09-07T01:06:54.513Z,13.97
2016-09-07T01:07:54.536Z,13.86
2016-09-07T01:08:54.574Z,13.98
2016-09-07T01:09:54.575Z,13.98
2016-09-07T01:10:53.964Z,13.94
2016-09-07T01:11:54.284Z,14.01
2016-09-07T01:12:54.338Z,13.93
2016-09-07T01:13:54.638Z,14.04
2016-09-07T01:14:54.665Z,13.94
2016-09-07T01:15:54.703Z,13.98
2016-09-07T01:16:54.416Z,13.97
2016-09-07T01:17:54.826Z,13.95
2016-09-07T01:18:54.552Z,14
2016-09-07T01:19:54.799Z,13.95
2016-09-07T01:20:54.804Z,14
2016-09-07T01:21:54.507Z,13.95
2016-09-07T01:22:54.553Z,13.85
2016-09-07T01:23:54.853Z,13.98
2016-09-07T01:24:54.576Z,13.97
2016-09-07T01:25:54.646Z,13.89
2016-09-07T01:26:54.915Z,13.87
2016-09-07T01:27:55.073Z,13.93
2016-09-07T01:28:54.665Z,13.79
2016-09-07T01:29:54.675Z,13.86
2016-09-07T01:30:55.006Z,13.83
2016-09-07T01:31:54.731Z,13.89
2016-09-07T01:32:54.733Z,13.86
2016-09-07T01:33:55.082Z,13.82
2016-09-07T01:34:55.085Z,13.75
2016-09-07T01:35:54.804Z,13.71
2016-09-07T01:36:54.837Z,13.7
2016-09-07T01:37:54.844Z,13.76
2016-09-07T01:38:54.865Z,13.6
2016-09-07T01:39:54.890Z,13.71
2016-09-07T01:40:55.220Z,13.64
2016-09-07T01:41:55.313Z,13.61
2016-09-07T01:42:54.967Z,13.6
2016-09-07T01:43:54.988Z,13.57
2016-09-07T01:44:54.687Z,13.6
2016-09-07T01:45:55.016Z,13.6
2016-09-07T01:46:54.733Z,13.5
2016-09-07T01:47:55.377Z,13.52
2016-09-07T01:48:55.087Z,13.5
2016-09-07T01:49:54.796Z,13.5
2016-09-07T01:50:54.805Z,13.42
2016-09-07T01:51:54.836Z,13.5
2016-09-07T01:52:55.162Z,13.43
2016-09-07T01:53:55.495Z,13.5
2016-09-07T01:54:55.527Z,13.46
2016-09-07T01:55:55.228Z,13.54
2016-09-07T01:56:55.268Z,13.49
2016-09-07T01:57:55.585Z,13.47
2016-09-07T01:58:55.601Z,13.37
2016-09-07T01:59:55.307Z,13.37
2016-09-07T02:00:55.028Z,13.36
2016-09-07T02:01:55.358Z,13.39
2016-09-07T02:02:55.377Z,13.37
2016-09-07T02:03:55.702Z,13.26
2016-09-07T02:04:55.421Z,13.43
2016-09-07T02:05:55.757Z,13.37
2016-09-07T02:06:55.765Z,13.28
2016-09-07T02:07:55.477Z,13.37
2016-09-07T02:08:55.815Z,13.39
2016-09-07T02:09:55.519Z,13.28
2016-09-07T02:10:55.847Z,13.21
2016-09-07T02:11:55.563Z,13.24
2016-09-07T02:12:55.891Z,13.36
2016-09-07T02:13:55.597Z,13.23
2016-09-07T02:14:55.936Z,13.21
2016-09-07T02:15:55.645Z,13.21
2016-09-07T02:16:56.021Z,13.17
2016-09-07T02:17:55.997Z,13.21
2016-09-07T02:18:55.697Z,13.2
2016-09-07T02:19:55.721Z,13.23
2016-09-07T02:20:55.756Z,13.2
2016-09-07T02:21:56.086Z,13.17
2016-09-07T02:22:56.118Z,13.12
2016-09-07T02:23:56.137Z,13.19
2016-09-07T02:24:56.146Z,13.21
2016-09-07T02:25:55.551Z,13.13
2016-09-07T02:26:56.188Z,13.09
2016-09-07T02:27:56.217Z,13.13
2016-09-07T02:28:56.346Z,13.09
2016-09-07T02:29:55.940Z,13.03
2016-09-07T02:30:56.345Z,13.05
2016-09-07T02:31:55.986Z,13.01
2016-09-07T02:32:56.318Z,12.95
2016-09-07T02:33:56.028Z,12.99
2016-09-07T02:34:56.377Z,13.02
2016-09-07T02:35:56.377Z,12.98
2016-09-07T02:36:56.422Z,13.02
2016-09-07T02:37:56.403Z,12.98
2016-09-07T02:38:56.126Z,12.99
2016-09-07T02:39:56.478Z,12.99
2016-09-07T02:40:56.616Z,12.94
2016-09-07T02:41:56.505Z,12.91
2016-09-07T02:42:56.215Z,12.94
2016-09-07T02:43:56.231Z,12.95
2016-09-07T02:44:56.576Z,12.93
2016-09-07T02:45:56.281Z,12.95
2016-09-07T02:46:56.598Z,12.95
2016-09-07T02:47:56.636Z,12.86
2016-09-07T02:48:56.636Z,12.87
2016-09-07T02:49:56.678Z,12.93
2016-09-07T02:50:56.696Z,12.86
2016-09-07T02:51:56.708Z,12.86
2016-09-07T02:52:56.473Z,12.91
2016-09-07T02:53:56.857Z,12.99
2016-09-07T02:54:56.774Z,12.98
2016-09-07T02:55:56.796Z,12.9
2016-09-07T02:56:56.508Z,12.87
2016-09-07T02:57:56.828Z,12.84
2016-09-07T02:58:56.857Z,12.83
2016-09-07T02:59:56.878Z,12.84
2016-09-07T03:00:56.586Z,12.81
2016-09-07T03:01:56.910Z,12.88
2016-09-07T03:02:56.950Z,12.83
2016-09-07T03:03:56.958Z,12.76
2016-09-07T03:04:56.709Z,12.83
2016-09-07T03:05:56.794Z,12.83
2016-09-07T03:06:57.024Z,12.83
2016-09-07T03:07:56.840Z,12.8
2016-09-07T03:08:57.118Z,12.83
2016-09-07T03:09:57.095Z,12.84
2016-09-07T03:10:56.848Z,12.76
2016-09-07T03:11:57.147Z,12.73
2016-09-07T03:12:57.204Z,12.73
2016-09-07T03:13:56.857Z,12.72
2016-09-07T03:14:57.189Z,12.72
2016-09-07T03:15:57.219Z,12.69
2016-09-07T03:16:56.606Z,12.65
2016-09-07T03:17:57.246Z,12.73
2016-09-07T03:18:57.257Z,12.62
2016-09-07T03:19:56.988Z,12.58
2016-09-07T03:20:57.007Z,12.62
2016-09-07T03:21:57.352Z,12.62
2016-09-07T03:22:57.334Z,12.58
2016-09-07T03:23:57.375Z,12.65
2016-09-07T03:24:57.386Z,12.66
2016-09-07T03:25:57.428Z,12.7
2016-09-07T03:26:57.118Z,12.63
2016-09-07T03:27:57.452Z,12.65
2016-09-07T03:28:57.174Z,12.63
2016-09-07T03:29:57.186Z,12.63
2016-09-07T03:30:57.227Z,12.63
2016-09-07T03:31:57.550Z,12.58
2016-09-07T03:32:57.648Z,12.44
2016-09-07T03:33:57.278Z,12.5
2016-09-07T03:34:57.595Z,12.48
2016-09-07T03:35:57.326Z,12.53
2016-09-07T03:36:57.328Z,12.51
2016-09-07T03:37:57.357Z,12.51
2016-09-07T03:38:57.688Z,12.48
2016-09-07T03:39:57.088Z,12.47
2016-09-07T03:40:57.404Z,12.37
2016-09-07T03:41:57.946Z,12.4
2016-09-07T03:42:57.948Z,12.48
2016-09-07T03:43:57.683Z,12.45
2016-09-07T03:44:57.650Z,12.35
2016-09-07T03:45:57.976Z,12.4
2016-09-07T03:46:58.048Z,12.43
2016-09-07T03:47:57.389Z,12.44
2016-09-07T03:48:58.048Z,12.37
2016-09-07T03:49:57.739Z,12.35
2016-09-07T03:50:57.717Z,12.35
2016-09-07T03:51:57.744Z,12.32
2016-09-07T03:52:58.018Z,12.37
2016-09-07T03:53:57.725Z,12.33
2016-09-07T03:54:57.747Z,12.28
2016-09-07T03:55:58.027Z,12.29
2016-09-07T03:56:57.733Z,12.29
2016-09-07T03:57:57.766Z,12.26
2016-09-07T03:58:58.087Z,12.29
2016-09-07T03:59:57.796Z,12.3
2016-09-07T04:00:58.136Z,12.35
2016-09-07T04:01:58.150Z,12.35
2016-09-07T04:02:58.175Z,12.43
2016-09-07T04:03:57.879Z,12.39
2016-09-07T04:04:58.216Z,12.39
2016-09-07T04:05:57.927Z,12.37
2016-09-07T04:06:57.944Z,12.36
2016-09-07T04:07:58.277Z,12.28
2016-09-07T04:08:58.294Z,12.3
2016-09-07T04:09:58.007Z,12.29
2016-09-07T04:10:58.357Z,12.32
2016-09-07T04:11:57.753Z,12.29
2016-09-07T04:12:58.434Z,12.25
2016-09-07T04:13:58.083Z,12.32
2016-09-07T04:14:58.414Z,12.28
2016-09-07T04:15:58.136Z,12.32
2016-09-07T04:16:57.836Z,12.32
2016-09-07T04:17:58.468Z,12.32
2016-09-07T04:18:58.493Z,12.26
2016-09-07T04:19:57.891Z,12.3
2016-09-07T04:20:58.237Z,12.23
2016-09-07T04:21:58.259Z,12.21
2016-09-07T04:22:58.605Z,12.25
2016-09-07T04:23:58.656Z,12.33
2016-09-07T04:24:58.673Z,12.35
2016-09-07T04:25:58.333Z,12.29
2016-09-07T04:26:58.478Z,12.29
2016-09-07T04:27:58.469Z,12.35
2016-09-07T04:28:58.704Z,12.33
2016-09-07T04:29:58.458Z,12.33
2016-09-07T04:30:58.496Z,12.3
2016-09-07T04:31:58.194Z,12.4
2016-09-07T04:32:58.875Z,12.36
2016-09-07T04:33:58.915Z,12.32
2016-09-07T04:34:58.925Z,12.32
2016-09-07T04:35:58.569Z,12.43
2016-09-07T04:36:58.576Z,12.36
2016-09-07T04:37:58.883Z,12.36
2016-09-07T04:38:58.901Z,12.35
2016-09-07T04:39:58.929Z,12.35
2016-09-07T04:40:58.434Z,12.36
2016-09-07T04:41:58.710Z,12.35
2016-09-07T04:42:58.676Z,12.37
2016-09-07T04:43:58.703Z,12.33
2016-09-07T04:44:58.705Z,12.33
2016-09-07T04:45:58.746Z,12.5
2016-09-07T04:46:59.090Z,12.45
2016-09-07T04:47:58.784Z,12.47
2016-09-07T04:48:59.102Z,12.4
2016-09-07T04:49:58.516Z,12.44
2016-09-07T04:50:58.826Z,12.4
2016-09-07T04:51:59.176Z,12.4
2016-09-07T04:52:59.196Z,12.39
2016-09-07T04:53:59.217Z,12.39
2016-09-07T04:54:58.923Z,12.44
2016-09-07T04:55:59.241Z,12.35
2016-09-07T04:56:58.944Z,12.37
2016-09-07T04:57:59.396Z,12.48
2016-09-07T04:58:59.306Z,12.5
2016-09-07T04:59:59.409Z,12.47
2016-09-07T05:00:59.041Z,12.45
2016-09-07T05:01:59.366Z,12.5
2016-09-07T05:02:59.399Z,12.62
2016-09-07T05:03:59.415Z,12.62
2016-09-07T05:04:59.116Z,12.73
2016-09-07T05:05:58.841Z,12.62
2016-09-07T05:06:59.180Z,12.7
2016-09-07T05:07:59.480Z,12.72
2016-09-07T05:08:59.215Z,12.75
2016-09-07T05:09:59.543Z,12.7
2016-09-07T05:10:59.486Z,12.73
2016-09-07T05:11:59.578Z,12.83
2016-09-07T05:12:59.434Z,12.83
2016-09-07T05:13:59.302Z,12.93
2016-09-07T05:14:59.325Z,12.98
2016-09-07T05:15:59.654Z,12.87
2016-09-07T05:16:59.349Z,12.88
2016-09-07T05:17:59.689Z,12.91
2016-09-07T05:18:59.723Z,13.08
2016-09-07T05:19:59.746Z,13.02
2016-09-07T05:20:59.445Z,13.2
2016-09-07T05:21:59.772Z,13.16
2016-09-07T05:22:59.496Z,13.28
2016-09-07T05:23:59.826Z,13.28
2016-09-07T05:24:59.526Z,13.3
2016-09-07T05:25:59.852Z,13.36
2016-09-07T05:26:59.573Z,13.46
2016-09-07T05:27:59.604Z,13.6
2016-09-07T05:28:59.606Z,13.62
2016-09-07T05:29:59.967Z,13.73
2016-09-07T05:30:59.958Z,13.68
2016-09-07T05:31:59.984Z,13.87
2016-09-07T05:32:59.385Z,13.85
2016-09-07T05:33:59.715Z,13.93
2016-09-07T05:34:59.764Z,13.95
2016-09-07T05:36:00.086Z,14.05
2016-09-07T05:37:00.107Z,14.13
2016-09-07T05:38:00.106Z,14.19
2016-09-07T05:38:59.826Z,14.22
2016-09-07T05:39:59.847Z,14.33
2016-09-07T05:40:59.853Z,14.23
2016-09-07T05:42:00.390Z,14.38
2016-09-07T05:43:00.206Z,14.37
2016-09-07T05:43:59.924Z,14.58
2016-09-07T05:44:59.956Z,14.56
2016-09-07T05:46:00.291Z,14.81
2016-09-07T05:47:00.357Z,15.07
2016-09-07T05:48:00.013Z,15.59
2016-09-07T05:49:00.360Z,16.44
2016-09-07T05:50:00.056Z,17.3
2016-09-07T05:51:00.375Z,18.26
2016-09-07T05:52:00.092Z,18.63
2016-09-07T05:53:00.126Z,18.71
2016-09-07T05:54:00.240Z,18.48
2016-09-07T05:55:00.165Z,18.16
2016-09-07T05:56:00.516Z,18.12
2016-09-07T05:56:59.888Z,17.79
2016-09-07T05:58:00.569Z,17.69
2016-09-07T05:59:00.575Z,17.63
2016-09-07T06:00:00.375Z,17.46
2016-09-07T06:01:00.681Z,17.35
2016-09-07T06:02:00.323Z,17.39
2016-09-07T06:03:00.025Z,17.59
2016-09-07T06:04:00.686Z,17.94
2016-09-07T06:05:00.686Z,18.51
2016-09-07T06:06:00.713Z,19.01
2016-09-07T06:07:00.746Z,19.63
2016-09-07T06:08:00.453Z,20.24
2016-09-07T06:09:00.477Z,20.78
2016-09-07T06:10:00.940Z,21.04
2016-09-07T06:11:00.907Z,21.53
2016-09-07T06:12:00.684Z,21.83
2016-09-07T06:13:00.586Z,21.99
2016-09-07T06:14:00.604Z,22.04
2016-09-07T06:15:00.619Z,22.1
2016-09-07T06:16:00.652Z,22.14
2016-09-07T06:17:00.991Z,22.1
2016-09-07T06:18:00.733Z,22.21
2016-09-07T06:19:01.040Z,22.28
2016-09-07T06:20:01.065Z,22.55
2016-09-07T06:21:01.084Z,22.67
2016-09-07T06:22:01.196Z,22.71
2016-09-07T06:23:01.303Z,22.53
2016-09-07T06:24:01.176Z,22.44
2016-09-07T06:25:01.204Z,22.36
2016-09-07T06:26:00.929Z,22.16
2016-09-07T06:27:01.245Z,22.19
2016-09-07T06:28:01.263Z,22.26
2016-09-07T06:29:00.978Z,22.33
2016-09-07T06:30:01.007Z,22.36
2016-09-07T06:31:01.036Z,22.41
2016-09-07T06:32:01.495Z,22.56
2016-09-07T06:33:00.775Z,22.63
2016-09-07T06:34:01.231Z,22.84
2016-09-07T06:35:01.446Z,23.18
2016-09-07T06:36:01.487Z,23.36
2016-09-07T06:37:01.495Z,23.79
2016-09-07T06:38:01.233Z,24
2016-09-07T06:39:01.249Z,24.38
2016-09-07T06:40:01.269Z,24.79
2016-09-07T06:41:01.295Z,25.16
2016-09-07T06:42:01.324Z,25.61
2016-09-07T06:43:01.661Z,26.08
2016-09-07T06:44:01.362Z,26.59
2016-09-07T06:45:01.724Z,27.05
2016-09-07T06:46:01.723Z,27.5
2016-09-07T06:47:01.466Z,27.93
2016-09-07T06:48:01.806Z,28.43
2016-09-07T06:49:01.505Z,28.83
2016-09-07T06:50:01.545Z,29.07
2016-09-07T06:51:01.905Z,29.2
2016-09-07T06:52:01.914Z,29.49
2016-09-07T06:53:01.934Z,29.47
2016-09-07T06:54:01.966Z,29.59
2016-09-07T06:55:01.686Z,29.8
2016-09-07T06:56:01.717Z,29.59
2016-09-07T06:57:01.654Z,29.8
2016-09-07T06:58:02.083Z,30.11
2016-09-07T06:59:02.114Z,30.32
2016-09-07T07:00:01.829Z,30.24
2016-09-07T07:01:02.176Z,30.33
2016-09-07T07:02:02.195Z,30.46
2016-09-07T07:03:02.219Z,30.55
2016-09-07T07:04:01.956Z,30.51
2016-09-07T07:05:02.294Z,30.52
2016-09-07T07:06:02.326Z,30.61
2016-09-07T07:07:02.040Z,30.73
2016-09-07T07:08:02.385Z,30.8
2016-09-07T07:09:02.402Z,30.67
2016-09-07T07:10:02.124Z,30.85
2016-09-07T07:11:02.156Z,30.98
2016-09-07T07:12:02.191Z,31.02
2016-09-07T07:13:02.635Z,31
2016-09-07T07:14:02.645Z,30.92
2016-09-07T07:15:02.584Z,30.71
2016-09-07T07:16:01.987Z,30.61
2016-09-07T07:17:02.652Z,30.8
2016-09-07T07:18:02.687Z,31.11
2016-09-07T07:19:02.080Z,31.23
2016-09-07T07:20:02.489Z,31.51
2016-09-07T07:21:02.462Z,31.62
2016-09-07T07:22:02.484Z,31.47
2016-09-07T07:23:02.887Z,31.7
2016-09-07T07:24:02.556Z,31.95
2016-09-07T07:25:02.675Z,31.82
2016-09-07T07:26:02.595Z,31.6
2016-09-07T07:27:02.630Z,31.29
2016-09-07T07:28:02.990Z,31.05
2016-09-07T07:29:02.697Z,30.54
2016-09-07T07:30:03.045Z,30.26
2016-09-07T07:31:03.065Z,30.06
2016-09-07T07:32:03.045Z,29.49
2016-09-07T07:33:03.121Z,29.12
2016-09-07T07:34:03.165Z,28.93
2016-09-07T07:35:03.229Z,28.89
2016-09-07T07:36:03.254Z,29.12
2016-09-07T07:37:02.930Z,29.61
2016-09-07T07:38:02.661Z,29.89
2016-09-07T07:39:03.323Z,30.27
2016-09-07T07:40:03.343Z,30.49
2016-09-07T07:41:03.385Z,30.36
2016-09-07T07:42:03.092Z,30.16
2016-09-07T07:43:03.107Z,29.43
2016-09-07T07:44:03.153Z,28.62
2016-09-07T07:45:03.180Z,27.82
2016-09-07T07:46:03.203Z,26.97
2016-09-07T07:47:03.272Z,26.13
2016-09-07T07:48:03.270Z,25.36
2016-09-07T07:49:03.628Z,24.62
2016-09-07T07:50:03.637Z,24.16
2016-09-07T07:51:03.655Z,23.88
2016-09-07T07:52:03.685Z,23.49
2016-09-07T07:53:03.715Z,23.07
2016-09-07T07:54:03.440Z,22.86
2016-09-07T07:55:03.788Z,22.7
2016-09-07T07:56:03.803Z,22.61
2016-09-07T07:57:03.843Z,22.46
2016-09-07T07:58:03.863Z,22.3
2016-09-07T07:59:03.883Z,22.15
2016-09-07T08:00:03.593Z,22.01
2016-09-07T08:01:03.944Z,22.07
2016-09-07T08:02:03.976Z,22.07
2016-09-07T08:03:04.112Z,22.07
2016-09-07T08:04:04.015Z,22.1
2016-09-07T08:05:04.069Z,22.03
2016-09-07T08:06:03.764Z,21.99
2016-09-07T08:07:04.103Z,21.99
2016-09-07T08:08:03.822Z,21.8
2016-09-07T08:09:03.844Z,21.89
2016-09-07T08:10:03.562Z,21.84
2016-09-07T08:11:04.206Z,21.84
2016-09-07T08:12:04.246Z,21.89
2016-09-07T08:13:04.325Z,21.92
2016-09-07T08:14:03.974Z,21.89
2016-09-07T08:15:04.334Z,21.83
2016-09-07T08:16:04.337Z,21.91
2016-09-07T08:17:04.397Z,21.89
2016-09-07T08:18:04.414Z,22
2016-09-07T08:19:04.422Z,21.99
2016-09-07T08:20:04.453Z,22
2016-09-07T08:21:04.484Z,22.08
2016-09-07T08:22:04.527Z,22.07
2016-09-07T08:23:04.953Z,22.04
2016-09-07T08:24:04.773Z,22.1
2016-09-07T08:25:04.907Z,22.07
2016-09-07T08:26:04.761Z,22.08
2016-09-07T08:27:04.891Z,22.08
2016-09-07T08:28:04.774Z,22.07
2016-09-07T08:29:04.953Z,22.07
2016-09-07T08:30:04.786Z,22.04
2016-09-07T08:31:04.915Z,22.1
2016-09-07T08:32:04.454Z,22.06
2016-09-07T08:33:04.495Z,22.12
2016-09-07T08:34:04.782Z,22.04
2016-09-07T08:35:04.832Z,22
2016-09-07T08:36:04.916Z,22.01
2016-09-07T08:37:04.964Z,22.12
2016-09-07T08:38:04.958Z,22.1
2016-09-07T08:39:04.955Z,22.06
2016-09-07T08:40:04.973Z,22.08
2016-09-07T08:41:04.999Z,22.08
2016-09-07T08:42:05.034Z,22.12
2016-09-07T08:43:05.064Z,22.23
2016-09-07T08:44:04.465Z,22.26
2016-09-07T08:45:05.123Z,22.31
2016-09-07T08:46:05.043Z,22.4
2016-09-07T08:47:04.943Z,22.33
2016-09-07T08:48:05.295Z,22.44
2016-09-07T08:49:05.311Z,22.4
2016-09-07T08:50:05.332Z,22.55
2016-09-07T08:51:05.267Z,22.52
2016-09-07T08:52:05.004Z,22.43
2016-09-07T08:53:05.332Z,22.47
2016-09-07T08:54:05.342Z,22.38
2016-09-07T08:55:05.377Z,22.47
2016-09-07T08:56:05.404Z,22.55
2016-09-07T08:57:05.420Z,22.56
2016-09-07T08:58:05.482Z,22.65
2016-09-07T08:59:05.477Z,22.7
2016-09-07T09:00:05.518Z,22.7
2016-09-07T09:01:05.237Z,22.65
2016-09-07T09:02:05.558Z,22.71
2016-09-07T09:03:05.575Z,22.8
2016-09-07T09:04:05.298Z,22.73
2016-09-07T09:05:05.645Z,22.77
2016-09-07T09:06:05.679Z,22.78
2016-09-07T09:07:05.454Z,22.77
2016-09-07T09:08:05.401Z,22.8
2016-09-07T09:09:05.755Z,22.83
2016-09-07T09:10:05.778Z,22.83
2016-09-07T09:11:05.805Z,22.88
2016-09-07T09:12:05.837Z,22.95
2016-09-07T09:13:05.862Z,22.95
2016-09-07T09:14:05.883Z,23.06
2016-09-07T09:15:05.905Z,23.07
2016-09-07T09:16:05.933Z,23.17
2016-09-07T09:17:05.643Z,23.11
2016-09-07T09:18:05.994Z,23.25
2016-09-07T09:19:05.993Z,23.18
2016-09-07T09:20:05.715Z,23.29
2016-09-07T09:21:06.055Z,23.21
2016-09-07T09:22:06.184Z,23.25
2016-09-07T09:23:06.108Z,23.28
2016-09-07T09:24:06.133Z,23.23
2016-09-07T09:25:05.862Z,23.23
2016-09-07T09:26:06.182Z,23.13
2016-09-07T09:27:05.915Z,23.13
2016-09-07T09:28:05.946Z,23.16
2016-09-07T09:29:06.275Z,23.25
2016-09-07T09:30:06.294Z,23.25
2016-09-07T09:31:06.017Z,23.26
2016-09-07T09:32:06.037Z,23.26
2016-09-07T09:33:06.378Z,23.37
2016-09-07T09:34:06.404Z,23.34
2016-09-07T09:35:06.448Z,23.49
2016-09-07T09:36:06.454Z,23.52
2016-09-07T09:37:06.482Z,23.49
2016-09-07T09:38:06.513Z,23.48
2016-09-07T09:39:06.646Z,23.44
2016-09-07T09:40:06.621Z,23.51
2016-09-07T09:41:06.590Z,23.51
2016-09-07T09:42:06.311Z,23.54
2016-09-07T09:43:06.640Z,23.52
2016-09-07T09:44:06.042Z,23.48
2016-09-07T09:45:06.691Z,23.52
2016-09-07T09:46:06.404Z,23.64
2016-09-07T09:47:06.743Z,23.66
2016-09-07T09:48:06.772Z,23.69
2016-09-07T09:49:06.494Z,23.81
2016-09-07T09:50:06.830Z,23.73
2016-09-07T09:51:06.852Z,23.89
2016-09-07T09:52:06.921Z,23.89
2016-09-07T09:53:06.963Z,23.86
2016-09-07T09:54:06.624Z,23.88
2016-09-07T09:55:06.954Z,23.88
2016-09-07T09:56:07.011Z,23.91
2016-09-07T09:57:06.693Z,24.03
2016-09-07T09:58:07.042Z,24
2016-09-07T09:59:07.082Z,24.03
2016-09-07T10:00:07.119Z,23.92
2016-09-07T10:01:07.134Z,23.92
2016-09-07T10:02:06.864Z,24
2016-09-07T10:03:07.276Z,23.96
2016-09-07T10:04:07.218Z,24.01
2016-09-07T10:05:06.923Z,23.99
2016-09-07T10:06:07.255Z,23.99
2016-09-07T10:07:07.294Z,24.07
2016-09-07T10:08:07.315Z,24.07
2016-09-07T10:09:07.351Z,24.18
2016-09-07T10:10:07.054Z,24.13
2016-09-07T10:11:07.208Z,24.03
2016-09-07T10:12:07.107Z,24.07
2016-09-07T10:13:07.841Z,24.06
2016-09-07T10:14:07.173Z,24.14
2016-09-07T10:15:07.182Z,24.21
2016-09-07T10:16:07.534Z,24.25
2016-09-07T10:17:07.561Z,24.32
2016-09-07T10:18:07.593Z,24.34
2016-09-07T10:19:07.282Z,24.37
2016-09-07T10:20:07.824Z,24.36
2016-09-07T10:21:07.563Z,24.4
2016-09-07T10:22:07.442Z,24.46
2016-09-07T10:23:07.865Z,24.43
2016-09-07T10:24:07.579Z,24.48
2016-09-07T10:25:07.168Z,24.59
2016-09-07T10:26:07.914Z,24.56
2016-09-07T10:27:07.872Z,24.56
2016-09-07T10:28:07.601Z,24.58
2016-09-07T10:29:07.255Z,24.65
2016-09-07T10:30:07.303Z,24.63
2016-09-07T10:31:07.990Z,24.59
2016-09-07T10:32:07.655Z,24.46
2016-09-07T10:33:07.999Z,24.37
2016-09-07T10:34:07.643Z,24.44
2016-09-07T10:35:07.628Z,24.4
2016-09-07T10:36:08.061Z,24.46
2016-09-07T10:37:07.960Z,24.59
2016-09-07T10:38:07.956Z,24.61
2016-09-07T10:39:07.951Z,24.58
2016-09-07T10:40:07.864Z,24.56
2016-09-07T10:41:08.213Z,24.62
2016-09-07T10:42:08.236Z,24.63
2016-09-07T10:43:08.269Z,24.63
2016-09-07T10:44:07.983Z,24.63
2016-09-07T10:45:08.321Z,24.65
2016-09-07T10:46:08.341Z,24.75
2016-09-07T10:47:08.040Z,24.75
2016-09-07T10:48:08.082Z,24.74
2016-09-07T10:49:08.434Z,24.79
2016-09-07T10:50:08.445Z,24.78
2016-09-07T10:51:08.169Z,24.81
2016-09-07T10:52:08.500Z,24.78
2016-09-07T10:53:08.534Z,24.65
2016-09-07T10:54:08.643Z,24.77
2016-09-07T10:55:08.591Z,24.63
2016-09-07T10:56:08.662Z,24.59
2016-09-07T10:57:08.720Z,24.53
2016-09-07T10:58:08.351Z,24.44
2016-09-07T10:59:08.380Z,24.44
2016-09-07T11:00:08.834Z,24.5
2016-09-07T11:01:08.141Z,24.38
2016-09-07T11:02:08.792Z,24.46
2016-09-07T11:03:08.965Z,24.46
2016-09-07T11:04:08.844Z,24.44
2016-09-07T11:05:08.899Z,24.43
2016-09-07T11:06:08.585Z,24.4
2016-09-07T11:07:08.616Z,24.44
2016-09-07T11:08:08.945Z,24.46
2016-09-07T11:09:08.400Z,24.51
2016-09-07T11:10:09.005Z,24.58
2016-09-07T11:11:09.059Z,24.55
2016-09-07T11:12:08.853Z,24.61
2016-09-07T11:13:08.782Z,24.58
2016-09-07T11:14:08.922Z,24.71
2016-09-07T11:15:08.860Z,24.78
2016-09-07T11:16:09.228Z,24.81
2016-09-07T11:17:09.194Z,24.81
2016-09-07T11:18:09.245Z,24.77
2016-09-07T11:19:09.239Z,24.68
2016-09-07T11:20:08.956Z,24.66
2016-09-07T11:21:09.304Z,24.66
2016-09-07T11:22:09.024Z,24.65
2016-09-07T11:23:09.042Z,24.68
2016-09-07T11:24:09.383Z,24.69
2016-09-07T11:25:08.789Z,24.69
2016-09-07T11:26:09.540Z,24.77
2016-09-07T11:27:09.154Z,24.78
2016-09-07T11:28:09.491Z,24.92
2016-09-07T11:29:09.227Z,24.79
2016-09-07T11:30:09.561Z,24.78
2016-09-07T11:31:09.587Z,24.88
2016-09-07T11:32:09.290Z,24.75
2016-09-07T11:33:09.646Z,24.79
2016-09-07T11:34:09.669Z,24.93
2016-09-07T11:35:09.785Z,25.01
2016-09-07T11:36:09.395Z,24.92
2016-09-07T11:37:09.825Z,24.88
2016-09-07T11:38:09.787Z,24.97
2016-09-07T11:39:09.793Z,24.93
2016-09-07T11:40:09.826Z,24.81
2016-09-07T11:41:09.850Z,24.82
2016-09-07T11:42:09.569Z,24.93
2016-09-07T11:43:09.908Z,24.97
2016-09-07T11:44:09.923Z,24.93
2016-09-07T11:45:09.968Z,25.09
2016-09-07T11:46:10.066Z,25.14
2016-09-07T11:47:10.015Z,25.16
2016-09-07T11:48:10.058Z,25.14
2016-09-07T11:49:10.065Z,25.26
2016-09-07T11:50:09.785Z,25.26
2016-09-07T11:51:09.839Z,25.33
2016-09-07T11:52:10.166Z,25.33
2016-09-07T11:53:10.184Z,25.4
2016-09-07T11:54:10.207Z,25.48
2016-09-07T11:55:10.239Z,25.41
2016-09-07T11:56:10.266Z,25.33
2016-09-07T11:57:09.991Z,25.34
2016-09-07T11:58:10.316Z,25.3
2016-09-07T11:59:10.036Z,25.3
2016-09-07T12:00:09.758Z,25.33
2016-09-07T12:01:10.414Z,25.24
2016-09-07T12:02:10.438Z,25.31
2016-09-07T12:03:10.151Z,25.3
2016-09-07T12:04:10.510Z,25.16
2016-09-07T12:05:10.536Z,25.22
2016-09-07T12:06:10.531Z,25.22
2016-09-07T12:07:10.676Z,25.16
2016-09-07T12:08:10.702Z,25.25
2016-09-07T12:09:10.678Z,25.33
2016-09-07T12:10:10.709Z,25.26
2016-09-07T12:11:10.398Z,25.29
2016-09-07T12:12:10.088Z,25.31
2016-09-07T12:13:11.032Z,25.21
2016-09-07T12:14:10.996Z,25.25
2016-09-07T12:15:11.247Z,25.31
2016-09-07T12:16:11.078Z,25.36
2016-09-07T12:17:11.155Z,25.36
2016-09-07T12:18:11.035Z,25.41
2016-09-07T12:19:11.095Z,25.33
2016-09-07T12:20:11.145Z,25.41
2016-09-07T12:21:11.105Z,25.48
2016-09-07T12:22:11.039Z,25.43
2016-09-07T12:23:10.776Z,25.43
2016-09-07T12:24:10.837Z,25.43
2016-09-07T12:25:11.063Z,25.37
2016-09-07T12:26:11.093Z,25.41
2016-09-07T12:27:11.134Z,25.33
2016-09-07T12:28:11.186Z,25.34
2016-09-07T12:29:10.878Z,25.33
2016-09-07T12:30:11.205Z,25.31
2016-09-07T12:31:11.143Z,25.33
2016-09-07T12:32:11.265Z,25.4
2016-09-07T12:33:11.302Z,25.4
2016-09-07T12:34:11.017Z,25.44
2016-09-07T12:35:11.367Z,25.34
2016-09-07T12:36:11.385Z,25.34
2016-09-07T12:37:11.180Z,25.39
2016-09-07T12:38:11.145Z,25.43
2016-09-07T12:39:11.578Z,25.4
2016-09-07T12:40:11.498Z,25.39
2016-09-07T12:41:11.528Z,25.4
2016-09-07T12:42:11.574Z,25.43
2016-09-07T12:43:11.578Z,25.49
2016-09-07T12:44:11.395Z,25.48
2016-09-07T12:45:11.646Z,25.59
2016-09-07T12:46:11.485Z,25.51
2016-09-07T12:47:11.678Z,25.59
2016-09-07T12:48:11.854Z,25.62
2016-09-07T12:49:11.426Z,25.58
2016-09-07T12:50:11.777Z,25.56
2016-09-07T12:51:11.791Z,25.62
2016-09-07T12:52:11.825Z,25.61
2016-09-07T12:53:11.866Z,25.61
2016-09-07T12:54:11.887Z,25.62
2016-09-07T12:55:11.912Z,25.56
2016-09-07T12:56:11.937Z,25.55